Al Cenac — WDD5445 — position and weather

sailwx.info

Track history (hours):
 
Tides and Currents Weather Stations Pressure Air Temp Water Temp Dewpoint Dewpoint Depression Visibility Wind Speed Wind Dir Waves Ship Positions

Al Cenac

Owner: Caillou Island Towing Co, Inc., Houma, LA. More information available from US FCC via Universal Licensing System and Coast Guard Vessel Documentation Center.

Last reported at 2015-Aug-03 10:28 UTC. Time now 2015-Aug-03 10:43 UTC.
Position N 40°38' W 074°08'.

; draft 10 m.

MMSI: 367158530.

Date/timePositionNaut miles runAvg speedWind from/ knotsBaromVisibWave heightAir tempDewpointWater temp
2015-Aug-03 10:28N 40°38' W 074°08'0 0.0
2015-Aug-03 09:31N 40°38' W 074°08'0 0.0
2015-Aug-03 08:29N 40°38' W 074°08'0 0.0
2015-Aug-03 07:32N 40°38' W 074°08'0 0.0
2015-Aug-03 06:24N 40°38' W 074°08'0 0.0
2015-Aug-03 05:25N 40°38' W 074°08'0 0.0
2015-Aug-03 04:32N 40°38' W 074°08'0 0.0
2015-Aug-03 03:32N 40°38' W 074°08'0 0.0
2015-Aug-03 02:33N 40°38' W 074°08'0 0.0
2015-Aug-03 01:28N 40°38' W 074°08'0 0.0
2015-Aug-03 00:28N 40°38' W 074°08'0 0.0
2015-Aug-02 23:29N 40°38' W 074°08'0 0.0
2015-Aug-02 22:33N 40°38' W 074°08'0 0.0
2015-Aug-02 21:30N 40°38' W 074°08'0 0.0
2015-Aug-02 20:25N 40°38' W 074°08'0 0.0
2015-Aug-02 19:29N 40°38' W 074°08'0 0.0
2015-Aug-02 18:32N 40°38' W 074°08'0 0.0
2015-Aug-02 17:33N 40°38' W 074°08'0 0.0
2015-Aug-02 16:16N 40°38' W 074°08'0 0.0
2015-Aug-02 15:28N 40°38' W 074°08'0 0.0
2015-Aug-02 14:29N 40°38' W 074°08'0 0.0
2015-Aug-02 13:30N 40°38' W 074°08'0 0.0
2015-Aug-02 12:30N 40°38' W 074°08'0 0.0
2015-Aug-02 11:31N 40°38' W 074°08'0 0.0
2015-Aug-02 10:31N 40°38' W 074°08'0 0.0
2015-Aug-02 09:32N 40°38' W 074°08'0 0.0
2015-Aug-02 08:33N 40°38' W 074°08'0 0.0
2015-Aug-02 07:33N 40°38' W 074°08'0 0.0
2015-Aug-02 06:28N 40°38' W 074°08'0 0.0
2015-Aug-02 05:29N 40°38' W 074°08'0 0.0
2015-Aug-02 04:29N 40°38' W 074°08'0 0.0
2015-Aug-02 03:30N 40°38' W 074°08'0 0.0
2015-Aug-02 02:31N 40°38' W 074°08'1 1.2
2015-Aug-02 01:34N 40°39' W 074°07'0 0.4
2015-Aug-02 00:33N 40°39' W 074°07'1 0.7
2015-Aug-01 23:31N 40°38' W 074°08'0 0.0
2015-Aug-01 22:26N 40°38' W 074°08'0 0.0
2015-Aug-01 21:33N 40°38' W 074°08'0 0.0
2015-Aug-01 20:33N 40°38' W 074°08'0 0.0
2015-Aug-01 19:28N 40°38' W 074°08'0 0.0
2015-Aug-01 18:17N 40°38' W 074°08'0 0.0
2015-Aug-01 17:23N 40°38' W 074°08'0 0.0
2015-Aug-01 16:30N 40°38' W 074°08'0 0.0
2015-Aug-01 15:31N 40°38' W 074°08'0 0.0
2015-Aug-01 14:31N 40°38' W 074°08'0 0.0
2015-Aug-01 13:32N 40°38' W 074°08'0 0.0
2015-Aug-01 12:33N 40°38' W 074°08'0 0.0
2015-Aug-01 11:33N 40°38' W 074°08'0 0.0
2015-Aug-01 10:28N 40°38' W 074°08'0 0.0
2015-Aug-01 09:29N 40°38' W 074°08'0 0.0
2015-Aug-01 08:29N 40°38' W 074°08'0 0.0
2015-Aug-01 07:33N 40°38' W 074°08'0 0.0
2015-Aug-01 06:31N 40°38' W 074°08'0 0.0
2015-Aug-01 05:31N 40°38' W 074°08'0 0.0
2015-Aug-01 04:32N 40°38' W 074°08'0 0.0
2015-Aug-01 03:33N 40°38' W 074°08'0 0.0
2015-Aug-01 01:31N 40°38' W 074°08'0 0.0
2015-Aug-01 00:29N 40°38' W 074°08'0 0.0
2015-Jul-31 23:32N 40°38' W 074°08'0 0.0
2015-Jul-31 22:30N 40°38' W 074°08'0 0.0
2015-Jul-31 21:31N 40°38' W 074°08'0 0.0
2015-Jul-31 20:31N 40°38' W 074°08'0 0.0
2015-Jul-31 19:32N 40°38' W 074°08'0 0.0
2015-Jul-31 18:33N 40°38' W 074°08'1 0.8
2015-Jul-31 17:33N 40°39' W 074°07'1 0.7
2015-Jul-31 16:32N 40°38' W 074°08'0 0.0
2015-Jul-31 15:25N 40°38' W 074°08'0 0.0
2015-Jul-31 14:32N 40°38' W 074°08'0 0.0
2015-Jul-31 13:32N 40°38' W 074°08'0 0.0
2015-Jul-31 12:33N 40°38' W 074°08'3 2.7
2015-Jul-31 11:33N 40°39' W 074°04'7 7.0
2015-Jul-31 10:33N 40°44' W 073°58'5 4.3
2015-Jul-31 09:28N 40°48' W 073°54'0 0.0
2015-Jul-31 08:33N 40°48' W 073°54'0 0.0
2015-Jul-31 07:33N 40°48' W 073°54'3 2.7
2015-Jul-31 06:33N 40°46' W 073°57'6 6.1
2015-Jul-31 05:33N 40°41' W 074°01'9 8.6
2015-Jul-31 04:33N 40°38' W 074°12'7 5.9
2015-Jul-31 03:27N 40°32' W 074°15'0 0.2
2015-Jul-31 02:18N 40°32' W 074°15'5 7.0
2015-Jul-31 01:33N 40°37' W 074°12'8 7.7
2015-Jul-31 00:34N 40°40' W 074°03'7 7.3
2015-Jul-30 23:34N 40°47' W 073°60'8 3.8
2015-Jul-30 21:33N 40°54' W 073°56'9 9.3
2015-Jul-30 20:33N 40°46' W 074°01'8 7.9
2015-Jul-30 19:33N 40°39' W 074°06'6 1.8
2015-Jul-30 16:25N 40°36' W 074°12'0 0.0
2015-Jul-30 15:20N 40°36' W 074°12'1 0.5
2015-Jul-30 13:25N 40°36' W 074°12'4 4.5
2015-Jul-30 12:33N 40°38' W 074°08'0 0.0
2015-Jul-30 11:31N 40°38' W 074°08'0 0.0
2015-Jul-30 10:32N 40°38' W 074°08'0 0.0
2015-Jul-30 09:29N 40°38' W 074°08'0 0.0
2015-Jul-30 08:30N 40°38' W 074°08'0 0.0
2015-Jul-30 07:31N 40°38' W 074°08'0 0.0
2015-Jul-30 06:31N 40°38' W 074°08'0 0.0
2015-Jul-30 05:29N 40°38' W 074°08'0 0.0
2015-Jul-30 04:33N 40°38' W 074°08'0 0.0
2015-Jul-30 03:33N 40°38' W 074°08'0 0.0
2015-Jul-30 02:28N 40°38' W 074°08'0 0.0
2015-Jul-30 01:23N 40°38' W 074°08'0 0.0
2015-Jul-30 00:32N 40°38' W 074°08'0 0.0
2015-Jul-29 23:30N 40°38' W 074°08'0 0.0
2015-Jul-29 22:33N 40°38' W 074°08'0 0.0
2015-Jul-29 21:25N 40°38' W 074°08'0 0.0
2015-Jul-29 20:08N 40°38' W 074°08'0 0.0
2015-Jul-29 19:32N 40°38' W 074°08'0 0.0
2015-Jul-29 18:30N 40°38' W 074°08'0 0.0
2015-Jul-29 17:27N 40°38' W 074°08'0 0.0
2015-Jul-29 16:31N 40°38' W 074°08'0 0.0
2015-Jul-29 15:20N 40°38' W 074°08'0 0.0
2015-Jul-29 14:26N 40°38' W 074°08'0 0.0
2015-Jul-29 12:23N 40°38' W 074°08'0 0.0
2015-Jul-29 11:26N 40°38' W 074°08'0 0.0
2015-Jul-29 10:30N 40°38' W 074°08'0 0.0
2015-Jul-29 09:33N 40°38' W 074°08'0 0.0
2015-Jul-29 08:31N 40°38' W 074°08'0 0.0
2015-Jul-29 07:29N 40°38' W 074°08'0 0.0
2015-Jul-29 06:29N 40°38' W 074°08'0 0.0
2015-Jul-29 05:33N 40°38' W 074°08'0 0.0
2015-Jul-29 04:13N 40°38' W 074°08'0 0.0
2015-Jul-29 03:31N 40°38' W 074°08'0 0.0
2015-Jul-29 02:32N 40°38' W 074°08'0 0.0
2015-Jul-29 01:24N 40°38' W 074°08'0 0.0
2015-Jul-29 00:30N 40°38' W 074°08'0 0.0
2015-Jul-28 23:04N 40°38' W 074°08'0 0.0
2015-Jul-28 22:26N 40°38' W 074°08'0 0.0
2015-Jul-28 21:29N 40°38' W 074°08'0 0.0
2015-Jul-28 20:24N 40°38' W 074°08'0 0.0
2015-Jul-28 18:25N 40°38' W 074°08'0 0.0
2015-Jul-28 17:26N 40°38' W 074°08'0 0.0
2015-Jul-28 16:32N 40°38' W 074°08'0 0.0
2015-Jul-28 15:33N 40°38' W 074°08'0 0.0
2015-Jul-28 14:22N 40°38' W 074°08'0 0.0
2015-Jul-28 13:28N 40°38' W 074°08'0 0.0
2015-Jul-28 12:29N 40°38' W 074°08'0 0.0
2015-Jul-28 11:24N 40°38' W 074°08'0 0.0
2015-Jul-28 10:30N 40°38' W 074°08'0 0.0
2015-Jul-28 09:25N 40°38' W 074°08'0 0.0
2015-Jul-28 08:32N 40°38' W 074°08'0 0.0
2015-Jul-28 07:26N 40°38' W 074°08'0 0.0
2015-Jul-28 06:33N 40°38' W 074°08'0 0.0
2015-Jul-28 05:10N 40°38' W 074°08'1 1.1
2015-Jul-28 04:33N 40°39' W 074°07'2 1.5
2015-Jul-28 03:32N 40°39' W 074°05'4 0.7
2015-Jul-27 21:17N 40°39' W 074°11'2 1.1
2015-Jul-27 19:06N 40°37' W 074°12'3 5.2
2015-Jul-27 18:34N 40°39' W 074°10'2 1.5
2015-Jul-27 17:31N 40°38' W 074°08'0 0.0
2015-Jul-27 16:14N 40°38' W 074°08'0 0.0
2015-Jul-27 00:18N 40°38' W 074°08'0 0.0
2015-Jul-26 22:05N 40°38' W 074°08'0 0.0
2015-Jul-26 20:32N 40°38' W 074°08'1 0.8
2015-Jul-26 19:28N 40°39' W 074°07'0 0.1
2015-Jul-26 16:09N 40°39' W 074°07'4 6.7
2015-Jul-26 15:34N 40°38' W 074°12'2 0.2
2015-Jul-26 07:34N 40°39' W 074°11'4 4.3
2015-Jul-26 06:32N 40°42' W 074°07'2 1.8
2015-Jul-26 05:33N 40°41' W 074°08'2 2.1
2015-Jul-26 04:29N 40°38' W 074°08'0 0.0
2015-Jul-26 03:33N 40°38' W 074°08'0 0.0
2015-Jul-26 02:30N 40°38' W 074°08'0 0.0
2015-Jul-26 01:31N 40°38' W 074°08'0 0.0
2015-Jul-26 00:32N 40°38' W 074°08'0 0.0
2015-Jul-25 23:26N 40°38' W 074°08'0 0.0
2015-Jul-25 22:33N 40°38' W 074°08'0 0.0
2015-Jul-25 21:28N 40°38' W 074°08'0 0.0
2015-Jul-25 20:28N 40°38' W 074°08'3 3.8
2015-Jul-25 19:33N 40°37' W 074°12'1 0.3
2015-Jul-25 14:33N 40°36' W 074°12'1 0.7
2015-Jul-25 13:28N 40°37' W 074°12'4 4.0
2015-Jul-25 12:33N 40°39' W 074°08'0 0.2
2015-Jul-25 11:31N 40°38' W 074°08'0 0.0
2015-Jul-25 10:31N 40°38' W 074°08'0 0.0
2015-Jul-25 09:26N 40°38' W 074°08'0 0.0
2015-Jul-25 08:33N 40°38' W 074°08'0 0.0
2015-Jul-25 07:33N 40°38' W 074°08'0 0.0
2015-Jul-25 06:28N 40°38' W 074°08'0 0.0
2015-Jul-25 05:29N 40°38' W 074°08'0 0.0
2015-Jul-25 04:29N 40°38' W 074°08'0 0.0
2015-Jul-25 03:33N 40°38' W 074°08'0 0.0
2015-Jul-25 02:31N 40°38' W 074°08'0 0.0
2015-Jul-25 01:31N 40°38' W 074°08'0 0.0
2015-Jul-25 00:32N 40°38' W 074°08'0 0.0
2015-Jul-24 23:33N 40°38' W 074°08'0 0.0
2015-Jul-24 22:33N 40°38' W 074°08'0 0.0
2015-Jul-24 21:28N 40°38' W 074°08'0 0.0
2015-Jul-24 20:28N 40°38' W 074°08'0 0.0
2015-Jul-24 19:23N 40°38' W 074°08'0 0.0
2015-Jul-24 18:30N 40°38' W 074°08'0 0.0
2015-Jul-24 17:30N 40°38' W 074°08'0 0.0
2015-Jul-24 16:31N 40°38' W 074°08'0 0.0
2015-Jul-24 15:26N 40°38' W 074°08'0 0.0
2015-Jul-24 14:32N 40°38' W 074°08'0 0.0
2015-Jul-24 13:27N 40°38' W 074°08'0 0.0
2015-Jul-24 12:22N 40°38' W 074°08'0 0.0
2015-Jul-24 11:28N 40°38' W 074°08'0 0.0
2015-Jul-24 10:29N 40°38' W 074°08'  
Track history (hours):
 
Tides and Currents Weather Stations Pressure Air Temp Water Temp Dewpoint Dewpoint Depression Visibility Wind Speed Wind Dir Waves Ship Positions

Al Cenac

Owner: Caillou Island Towing Co, Inc., Houma, LA. More information available from US FCC via Universal Licensing System and Coast Guard Vessel Documentation Center.

Last reported at 2015-Aug-03 10:28 UTC. Time now 2015-Aug-03 10:43 UTC.
Position N 40°38' W 074°08'.

; draft 10 m.

MMSI: 367158530.

Date/timePositionNaut miles runAvg speedWind from/ knotsBaromVisibWave heightAir tempDewpointWater temp
2015-Aug-03 10:28N 40°38' W 074°08'0 0.0
2015-Aug-03 09:31N 40°38' W 074°08'0 0.0
2015-Aug-03 08:29N 40°38' W 074°08'0 0.0
2015-Aug-03 07:32N 40°38' W 074°08'0 0.0
2015-Aug-03 06:24N 40°38' W 074°08'0 0.0
2015-Aug-03 05:25N 40°38' W 074°08'0 0.0
2015-Aug-03 04:32N 40°38' W 074°08'0 0.0
2015-Aug-03 03:32N 40°38' W 074°08'0 0.0
2015-Aug-03 02:33N 40°38' W 074°08'0 0.0
2015-Aug-03 01:28N 40°38' W 074°08'0 0.0
2015-Aug-03 00:28N 40°38' W 074°08'0 0.0
2015-Aug-02 23:29N 40°38' W 074°08'0 0.0
2015-Aug-02 22:33N 40°38' W 074°08'0 0.0
2015-Aug-02 21:30N 40°38' W 074°08'0 0.0
2015-Aug-02 20:25N 40°38' W 074°08'0 0.0
2015-Aug-02 19:29N 40°38' W 074°08'0 0.0
2015-Aug-02 18:32N 40°38' W 074°08'0 0.0
2015-Aug-02 17:33N 40°38' W 074°08'0 0.0
2015-Aug-02 16:16N 40°38' W 074°08'0 0.0
2015-Aug-02 15:28N 40°38' W 074°08'0 0.0
2015-Aug-02 14:29N 40°38' W 074°08'0 0.0
2015-Aug-02 13:30N 40°38' W 074°08'0 0.0
2015-Aug-02 12:30N 40°38' W 074°08'0 0.0
2015-Aug-02 11:31N 40°38' W 074°08'0 0.0
2015-Aug-02 10:31N 40°38' W 074°08'0 0.0
2015-Aug-02 09:32N 40°38' W 074°08'0 0.0
2015-Aug-02 08:33N 40°38' W 074°08'0 0.0
2015-Aug-02 07:33N 40°38' W 074°08'0 0.0
2015-Aug-02 06:28N 40°38' W 074°08'0 0.0
2015-Aug-02 05:29N 40°38' W 074°08'0 0.0
2015-Aug-02 04:29N 40°38' W 074°08'0 0.0
2015-Aug-02 03:30N 40°38' W 074°08'0 0.0
2015-Aug-02 02:31N 40°38' W 074°08'1 1.2
2015-Aug-02 01:34N 40°39' W 074°07'0 0.4
2015-Aug-02 00:33N 40°39' W 074°07'1 0.7
2015-Aug-01 23:31N 40°38' W 074°08'0 0.0
2015-Aug-01 22:26N 40°38' W 074°08'0 0.0
2015-Aug-01 21:33N 40°38' W 074°08'0 0.0
2015-Aug-01 20:33N 40°38' W 074°08'0 0.0
2015-Aug-01 19:28N 40°38' W 074°08'0 0.0
2015-Aug-01 18:17N 40°38' W 074°08'0 0.0
2015-Aug-01 17:23N 40°38' W 074°08'0 0.0
2015-Aug-01 16:30N 40°38' W 074°08'0 0.0
2015-Aug-01 15:31N 40°38' W 074°08'0 0.0
2015-Aug-01 14:31N 40°38' W 074°08'0 0.0
2015-Aug-01 13:32N 40°38' W 074°08'0 0.0
2015-Aug-01 12:33N 40°38' W 074°08'0 0.0
2015-Aug-01 11:33N 40°38' W 074°08'0 0.0
2015-Aug-01 10:28N 40°38' W 074°08'0 0.0
2015-Aug-01 09:29N 40°38' W 074°08'0 0.0
2015-Aug-01 08:29N 40°38' W 074°08'0 0.0
2015-Aug-01 07:33N 40°38' W 074°08'0 0.0
2015-Aug-01 06:31N 40°38' W 074°08'0 0.0
2015-Aug-01 05:31N 40°38' W 074°08'0 0.0
2015-Aug-01 04:32N 40°38' W 074°08'0 0.0
2015-Aug-01 03:33N 40°38' W 074°08'0 0.0
2015-Aug-01 01:31N 40°38' W 074°08'0 0.0
2015-Aug-01 00:29N 40°38' W 074°08'0 0.0
2015-Jul-31 23:32N 40°38' W 074°08'0 0.0
2015-Jul-31 22:30N 40°38' W 074°08'0 0.0
2015-Jul-31 21:31N 40°38' W 074°08'0 0.0
2015-Jul-31 20:31N 40°38' W 074°08'0 0.0
2015-Jul-31 19:32N 40°38' W 074°08'0 0.0
2015-Jul-31 18:33N 40°38' W 074°08'1 0.8
2015-Jul-31 17:33N 40°39' W 074°07'1 0.7
2015-Jul-31 16:32N 40°38' W 074°08'0 0.0
2015-Jul-31 15:25N 40°38' W 074°08'0 0.0
2015-Jul-31 14:32N 40°38' W 074°08'0 0.0
2015-Jul-31 13:32N 40°38' W 074°08'0 0.0
2015-Jul-31 12:33N 40°38' W 074°08'3 2.7
2015-Jul-31 11:33N 40°39' W 074°04'7 7.0
2015-Jul-31 10:33N 40°44' W 073°58'5 4.3
2015-Jul-31 09:28N 40°48' W 073°54'0 0.0
2015-Jul-31 08:33N 40°48' W 073°54'0 0.0
2015-Jul-31 07:33N 40°48' W 073°54'3 2.7
2015-Jul-31 06:33N 40°46' W 073°57'6 6.1
2015-Jul-31 05:33N 40°41' W 074°01'9 8.6
2015-Jul-31 04:33N 40°38' W 074°12'7 5.9
2015-Jul-31 03:27N 40°32' W 074°15'0 0.2
2015-Jul-31 02:18N 40°32' W 074°15'5 7.0
2015-Jul-31 01:33N 40°37' W 074°12'8 7.7
2015-Jul-31 00:34N 40°40' W 074°03'7 7.3
2015-Jul-30 23:34N 40°47' W 073°60'8 3.8
2015-Jul-30 21:33N 40°54' W 073°56'9 9.3
2015-Jul-30 20:33N 40°46' W 074°01'8 7.9
2015-Jul-30 19:33N 40°39' W 074°06'6 1.8
2015-Jul-30 16:25N 40°36' W 074°12'0 0.0
2015-Jul-30 15:20N 40°36' W 074°12'1 0.5
2015-Jul-30 13:25N 40°36' W 074°12'4 4.5
2015-Jul-30 12:33N 40°38' W 074°08'0 0.0
2015-Jul-30 11:31N 40°38' W 074°08'0 0.0
2015-Jul-30 10:32N 40°38' W 074°08'0 0.0
2015-Jul-30 09:29N 40°38' W 074°08'0 0.0
2015-Jul-30 08:30N 40°38' W 074°08'0 0.0
2015-Jul-30 07:31N 40°38' W 074°08'0 0.0
2015-Jul-30 06:31N 40°38' W 074°08'0 0.0
2015-Jul-30 05:29N 40°38' W 074°08'0 0.0
2015-Jul-30 04:33N 40°38' W 074°08'0 0.0
2015-Jul-30 03:33N 40°38' W 074°08'0 0.0
2015-Jul-30 02:28N 40°38' W 074°08'0 0.0
2015-Jul-30 01:23N 40°38' W 074°08'0 0.0
2015-Jul-30 00:32N 40°38' W 074°08'0 0.0
2015-Jul-29 23:30N 40°38' W 074°08'0 0.0
2015-Jul-29 22:33N 40°38' W 074°08'0 0.0
2015-Jul-29 21:25N 40°38' W 074°08'0 0.0
2015-Jul-29 20:08N 40°38' W 074°08'0 0.0
2015-Jul-29 19:32N 40°38' W 074°08'0 0.0
2015-Jul-29 18:30N 40°38' W 074°08'0 0.0
2015-Jul-29 17:27N 40°38' W 074°08'0 0.0
2015-Jul-29 16:31N 40°38' W 074°08'0 0.0
2015-Jul-29 15:20N 40°38' W 074°08'0 0.0
2015-Jul-29 14:26N 40°38' W 074°08'0 0.0
2015-Jul-29 12:23N 40°38' W 074°08'0 0.0
2015-Jul-29 11:26N 40°38' W 074°08'0 0.0
2015-Jul-29 10:30N 40°38' W 074°08'0 0.0
2015-Jul-29 09:33N 40°38' W 074°08'0 0.0
2015-Jul-29 08:31N 40°38' W 074°08'0 0.0
2015-Jul-29 07:29N 40°38' W 074°08'0 0.0
2015-Jul-29 06:29N 40°38' W 074°08'0 0.0
2015-Jul-29 05:33N 40°38' W 074°08'0 0.0
2015-Jul-29 04:13N 40°38' W 074°08'0 0.0
2015-Jul-29 03:31N 40°38' W 074°08'0 0.0
2015-Jul-29 02:32N 40°38' W 074°08'0 0.0
2015-Jul-29 01:24N 40°38' W 074°08'0 0.0
2015-Jul-29 00:30N 40°38' W 074°08'0 0.0
2015-Jul-28 23:04N 40°38' W 074°08'0 0.0
2015-Jul-28 22:26N 40°38' W 074°08'0 0.0
2015-Jul-28 21:29N 40°38' W 074°08'0 0.0
2015-Jul-28 20:24N 40°38' W 074°08'0 0.0
2015-Jul-28 18:25N 40°38' W 074°08'0 0.0
2015-Jul-28 17:26N 40°38' W 074°08'0 0.0
2015-Jul-28 16:32N 40°38' W 074°08'0 0.0
2015-Jul-28 15:33N 40°38' W 074°08'0 0.0
2015-Jul-28 14:22N 40°38' W 074°08'0 0.0
2015-Jul-28 13:28N 40°38' W 074°08'0 0.0
2015-Jul-28 12:29N 40°38' W 074°08'0 0.0
2015-Jul-28 11:24N 40°38' W 074°08'0 0.0
2015-Jul-28 10:30N 40°38' W 074°08'0 0.0
2015-Jul-28 09:25N 40°38' W 074°08'0 0.0
2015-Jul-28 08:32N 40°38' W 074°08'0 0.0
2015-Jul-28 07:26N 40°38' W 074°08'0 0.0
2015-Jul-28 06:33N 40°38' W 074°08'0 0.0
2015-Jul-28 05:10N 40°38' W 074°08'1 1.1
2015-Jul-28 04:33N 40°39' W 074°07'2 1.5
2015-Jul-28 03:32N 40°39' W 074°05'4 0.7
2015-Jul-27 21:17N 40°39' W 074°11'2 1.1
2015-Jul-27 19:06N 40°37' W 074°12'3 5.2
2015-Jul-27 18:34N 40°39' W 074°10'2 1.5
2015-Jul-27 17:31N 40°38' W 074°08'0 0.0
2015-Jul-27 16:14N 40°38' W 074°08'0 0.0
2015-Jul-27 00:18N 40°38' W 074°08'0 0.0
2015-Jul-26 22:05N 40°38' W 074°08'0 0.0
2015-Jul-26 20:32N 40°38' W 074°08'1 0.8
2015-Jul-26 19:28N 40°39' W 074°07'0 0.1
2015-Jul-26 16:09N 40°39' W 074°07'4 6.7
2015-Jul-26 15:34N 40°38' W 074°12'2 0.2
2015-Jul-26 07:34N 40°39' W 074°11'4 4.3
2015-Jul-26 06:32N 40°42' W 074°07'2 1.8
2015-Jul-26 05:33N 40°41' W 074°08'2 2.1
2015-Jul-26 04:29N 40°38' W 074°08'0 0.0
2015-Jul-26 03:33N 40°38' W 074°08'0 0.0
2015-Jul-26 02:30N 40°38' W 074°08'0 0.0
2015-Jul-26 01:31N 40°38' W 074°08'0 0.0
2015-Jul-26 00:32N 40°38' W 074°08'0 0.0
2015-Jul-25 23:26N 40°38' W 074°08'0 0.0
2015-Jul-25 22:33N 40°38' W 074°08'0 0.0
2015-Jul-25 21:28N 40°38' W 074°08'0 0.0
2015-Jul-25 20:28N 40°38' W 074°08'3 3.8
2015-Jul-25 19:33N 40°37' W 074°12'1 0.3
2015-Jul-25 14:33N 40°36' W 074°12'1 0.7
2015-Jul-25 13:28N 40°37' W 074°12'4 4.0
2015-Jul-25 12:33N 40°39' W 074°08'0 0.2
2015-Jul-25 11:31N 40°38' W 074°08'0 0.0
2015-Jul-25 10:31N 40°38' W 074°08'0 0.0
2015-Jul-25 09:26N 40°38' W 074°08'0 0.0
2015-Jul-25 08:33N 40°38' W 074°08'0 0.0
2015-Jul-25 07:33N 40°38' W 074°08'0 0.0
2015-Jul-25 06:28N 40°38' W 074°08'0 0.0
2015-Jul-25 05:29N 40°38' W 074°08'0 0.0
2015-Jul-25 04:29N 40°38' W 074°08'0 0.0
2015-Jul-25 03:33N 40°38' W 074°08'0 0.0
2015-Jul-25 02:31N 40°38' W 074°08'0 0.0
2015-Jul-25 01:31N 40°38' W 074°08'0 0.0
2015-Jul-25 00:32N 40°38' W 074°08'0 0.0
2015-Jul-24 23:33N 40°38' W 074°08'0 0.0
2015-Jul-24 22:33N 40°38' W 074°08'0 0.0
2015-Jul-24 21:28N 40°38' W 074°08'0 0.0
2015-Jul-24 20:28N 40°38' W 074°08'0 0.0
2015-Jul-24 19:23N 40°38' W 074°08'0 0.0
2015-Jul-24 18:30N 40°38' W 074°08'0 0.0
2015-Jul-24 17:30N 40°38' W 074°08'0 0.0
2015-Jul-24 16:31N 40°38' W 074°08'0 0.0
2015-Jul-24 15:26N 40°38' W 074°08'0 0.0
2015-Jul-24 14:32N 40°38' W 074°08'0 0.0
2015-Jul-24 13:27N 40°38' W 074°08'0 0.0
2015-Jul-24 12:22N 40°38' W 074°08'0 0.0
2015-Jul-24 11:28N 40°38' W 074°08'0 0.0
2015-Jul-24 10:29N 40°38' W 074°08'  

Dump ship's entire track history